createdAt,value
2019-03-18T00:00:41.097Z,8.23
2019-03-18T00:05:35.062Z,9.63
2019-03-18T00:10:29.128Z,9.10
2019-03-18T00:15:23.192Z,12.67
2019-03-18T00:20:17.160Z,7.63
2019-03-18T00:25:14.639Z,10.83
2019-03-18T00:30:16.303Z,7.77
2019-03-18T00:35:10.352Z,11.53
2019-03-18T00:40:12.718Z,7.50
2019-03-18T00:45:14.806Z,10.47
2019-03-18T00:50:05.559Z,14.30
2019-03-18T00:54:59.539Z,16.30
2019-03-18T00:59:53.495Z,11.23
2019-03-18T01:04:47.509Z,9.60
2019-03-18T01:09:41.510Z,11.87
2019-03-18T01:14:35.476Z,13.57
2019-03-18T01:19:29.431Z,10.23
2019-03-18T01:24:23.386Z,10.60
2019-03-18T01:29:17.368Z,13.60
2019-03-18T01:34:11.442Z,13.93
2019-03-18T01:39:05.500Z,11.33
2019-03-18T01:43:59.479Z,9.70
2019-03-18T01:48:53.479Z,9.27
2019-03-18T01:53:47.436Z,9.47
2019-03-18T01:58:41.517Z,11.40
2019-03-18T02:03:35.482Z,11.00
2019-03-18T02:08:29.423Z,7.67
2019-03-18T02:13:23.398Z,8.73
2019-03-18T02:18:17.379Z,8.93
2019-03-18T02:23:11.335Z,12.67
2019-03-18T02:28:05.319Z,7.27
2019-03-18T02:32:59.296Z,10.27
2019-03-18T02:37:53.274Z,11.03
2019-03-18T02:42:47.248Z,8.50
2019-03-18T02:47:41.213Z,10.33
2019-03-18T02:52:35.282Z,10.37
2019-03-18T02:57:29.248Z,7.67
2019-03-18T03:02:23.205Z,8.13
2019-03-18T03:07:17.265Z,8.10
2019-03-18T03:12:11.224Z,8.83
2019-03-18T03:17:05.179Z,7.90
2019-03-18T03:21:59.191Z,9.13
2019-03-18T03:26:53.140Z,8.67
2019-03-18T03:31:47.119Z,9.73
2019-03-18T03:36:41.098Z,10.97
2019-03-18T03:41:35.342Z,9.03
2019-03-18T03:46:42.210Z,9.27
2019-03-18T03:51:25.157Z,7.67
2019-03-18T03:56:19.152Z,10.33
2019-03-18T04:01:13.534Z,11.00
2019-03-18T04:06:07.474Z,8.40
2019-03-18T04:11:01.558Z,13.57
2019-03-18T04:15:55.493Z,9.20
2019-03-18T04:20:49.587Z,15.40
2019-03-18T04:25:43.524Z,14.90
2019-03-18T04:30:37.575Z,13.53
2019-03-18T04:35:31.639Z,18.67
2019-03-18T04:40:25.594Z,15.17
2019-03-18T04:45:19.572Z,15.80
2019-03-18T04:50:13.639Z,19.33
2019-03-18T04:55:07.724Z,13.10
2019-03-18T05:00:07.218Z,18.73
2019-03-18T05:05:01.183Z,17.33
2019-03-18T05:09:55.142Z,20.80
2019-03-18T05:14:49.060Z,20.30
2019-03-18T05:19:43.063Z,19.07
2019-03-18T05:24:37.031Z,22.00
2019-03-18T05:29:31.025Z,21.57
2019-03-18T05:34:25.009Z,19.93
2019-03-18T05:39:19.197Z,24.00
2019-03-18T05:44:13.177Z,23.23
2019-03-18T05:49:07.144Z,26.47
2019-03-18T05:54:01.117Z,25.43
2019-03-18T05:58:55.092Z,18.90
2019-03-18T06:03:49.043Z,26.43
2019-03-18T06:08:43.017Z,23.27
2019-03-18T06:13:36.978Z,16.27
2019-03-18T06:18:31.050Z,21.90
2019-03-18T06:23:25.157Z,20.23
2019-03-18T06:28:19.359Z,22.53
2019-03-18T06:33:13.354Z,17.10
2019-03-18T06:38:07.346Z,16.93
2019-03-18T06:43:01.328Z,19.43
2019-03-18T06:48:04.393Z,23.80
2019-03-18T06:52:51.228Z,19.47
2019-03-18T06:57:45.199Z,19.63
2019-03-18T07:02:39.171Z,18.63
2019-03-18T07:07:33.257Z,25.63
2019-03-18T07:12:27.220Z,24.10
2019-03-18T07:17:21.182Z,21.27
2019-03-18T07:22:15.177Z,25.13
2019-03-18T07:27:09.212Z,18.93
2019-03-18T07:32:03.303Z,24.73
2019-03-18T07:36:57.289Z,15.27
2019-03-18T07:41:51.289Z,16.60
2019-03-18T07:46:45.255Z,14.10
2019-03-18T07:51:39.198Z,18.90
2019-03-18T07:56:33.180Z,18.00
2019-03-18T08:01:27.164Z,18.50
2019-03-18T08:06:21.284Z,15.67
2019-03-18T08:11:15.248Z,19.87
2019-03-18T08:16:09.222Z,19.90
2019-03-18T08:21:03.300Z,22.73
2019-03-18T08:25:57.258Z,18.63
2019-03-18T08:30:51.256Z,20.80
2019-03-18T08:35:45.238Z,22.63
2019-03-18T08:40:39.308Z,16.77
2019-03-18T08:45:33.301Z,18.60
2019-03-18T08:50:27.249Z,17.47
2019-03-18T08:55:21.488Z,16.17
2019-03-18T09:00:16.470Z,16.30
2019-03-18T09:05:10.552Z,19.27
2019-03-18T09:10:10.419Z,13.17
2019-03-18T09:15:06.498Z,12.70
2019-03-18T09:20:00.473Z,9.33
2019-03-18T09:24:54.454Z,15.60
2019-03-18T09:29:48.464Z,14.67
2019-03-18T09:34:42.539Z,10.70
2019-03-18T09:39:37.574Z,10.93
2019-03-18T09:44:31.821Z,11.90
2019-03-18T09:49:25.797Z,7.80
2019-03-18T09:54:19.773Z,11.00
2019-03-18T09:59:13.749Z,15.13
2019-03-18T10:04:07.718Z,10.93
2019-03-18T10:09:01.798Z,10.00
2019-03-18T10:13:55.863Z,9.03
2019-03-18T10:18:49.869Z,10.43
2019-03-18T10:23:43.949Z,9.40
2019-03-18T10:28:38.212Z,16.17
2019-03-18T10:33:32.345Z,9.93
2019-03-18T10:38:26.312Z,9.60
2019-03-18T10:43:20.318Z,12.37
2019-03-18T10:48:14.289Z,6.30
2019-03-18T10:53:08.368Z,14.00
2019-03-18T10:58:02.362Z,5.97
2019-03-18T11:02:56.297Z,9.97
2019-03-18T11:07:51.885Z,12.70
2019-03-18T11:12:46.170Z,13.57
2019-03-18T11:17:40.121Z,13.83
2019-03-18T11:22:34.209Z,6.20
2019-03-18T11:27:28.184Z,13.27
2019-03-18T11:32:22.196Z,11.97
2019-03-18T11:37:16.196Z,7.30
2019-03-18T11:42:10.169Z,7.65
2019-03-18T11:47:04.349Z,8.83
2019-03-18T11:51:58.326Z,9.13
2019-03-18T11:56:52.298Z,12.10
2019-03-18T12:01:46.264Z,9.30
2019-03-18T12:06:40.363Z,7.53
2019-03-18T12:11:34.550Z,6.65
2019-03-18T12:16:28.513Z,9.50
2019-03-18T12:21:22.532Z,8.28
2019-03-18T12:26:16.630Z,10.23
2019-03-18T12:31:10.656Z,8.87
2019-03-18T12:36:04.777Z,5.85
2019-03-18T12:40:58.914Z,6.65
2019-03-18T12:45:52.848Z,5.28
2019-03-18T12:50:56.002Z,7.60
2019-03-18T12:55:44.033Z,4.67
2019-03-18T13:00:37.986Z,9.83
2019-03-18T13:05:32.059Z,7.00
2019-03-18T13:10:26.116Z,10.28
2019-03-18T13:15:20.121Z,9.47
2019-03-18T13:20:17.115Z,7.43
2019-03-18T13:25:11.832Z,8.80
2019-03-18T13:30:16.286Z,7.80
2019-03-18T13:35:10.444Z,14.00
2019-03-18T13:40:10.007Z,4.90
2019-03-18T13:45:07.807Z,8.27
2019-03-18T13:50:02.091Z,6.20
2019-03-18T13:54:56.178Z,11.37
2019-03-18T13:59:50.150Z,7.97
2019-03-18T14:04:44.142Z,5.63
2019-03-18T14:09:38.210Z,9.63
2019-03-18T14:14:32.178Z,7.27
2019-03-18T14:19:26.188Z,6.73
2019-03-18T14:24:20.193Z,6.72
2019-03-18T14:29:14.211Z,7.65
2019-03-18T14:34:08.154Z,6.40
2019-03-18T14:39:04.348Z,4.42
2019-03-18T14:43:58.360Z,4.53
2019-03-18T14:48:52.347Z,4.65
2019-03-18T14:53:46.340Z,4.85
2019-03-18T14:58:40.324Z,6.17
2019-03-18T15:03:34.312Z,7.37
2019-03-18T15:08:28.302Z,4.15
2019-03-18T15:13:30.833Z,5.72
2019-03-18T15:18:18.305Z,6.42
2019-03-18T15:23:12.291Z,7.37
2019-03-18T15:28:06.374Z,4.03
2019-03-18T15:33:00.363Z,9.10
2019-03-18T15:37:54.474Z,10.90
2019-03-18T15:42:48.553Z,7.33
2019-03-18T15:47:42.656Z,6.53
2019-03-18T15:52:36.646Z,8.83
2019-03-18T15:57:30.675Z,5.37
2019-03-18T16:02:24.603Z,10.23
2019-03-18T16:07:18.660Z,8.03
2019-03-18T16:12:12.719Z,5.53
2019-03-18T16:17:06.813Z,5.62
2019-03-18T16:22:00.826Z,6.00
2019-03-18T16:26:54.895Z,6.42
2019-03-18T16:31:48.955Z,5.70
2019-03-18T16:36:42.909Z,10.70
2019-03-18T16:41:37.010Z,8.73
2019-03-18T16:46:30.987Z,7.33
2019-03-18T16:51:25.004Z,5.43
2019-03-18T16:56:19.002Z,7.37
2019-03-18T17:01:13.045Z,6.83
2019-03-18T17:06:07.219Z,5.77
2019-03-18T17:11:01.209Z,12.40
2019-03-18T17:15:55.305Z,5.60
2019-03-18T17:20:49.364Z,13.13
2019-03-18T17:25:43.433Z,11.27
2019-03-18T17:30:37.469Z,7.37
2019-03-18T17:35:31.454Z,9.73
2019-03-18T17:40:25.542Z,13.43
2019-03-18T17:45:19.631Z,14.30
2019-03-18T17:50:19.315Z,10.47
2019-03-18T17:55:13.438Z,10.33
2019-03-18T18:00:11.000Z,15.07
2019-03-18T18:05:05.244Z,11.77
2019-03-18T18:09:59.300Z,12.57
2019-03-18T18:14:53.541Z,10.37
2019-03-18T18:19:47.525Z,7.13
2019-03-18T18:24:41.542Z,9.20
2019-03-18T18:29:35.591Z,13.07
2019-03-18T18:34:29.713Z,11.17
2019-03-18T18:39:25.605Z,13.00
2019-03-18T18:44:19.630Z,12.20
2019-03-18T18:49:13.624Z,12.63
2019-03-18T18:54:07.853Z,12.43
2019-03-18T18:59:01.965Z,13.27
2019-03-18T19:03:55.976Z,9.00
2019-03-18T19:08:51.611Z,8.73
2019-03-18T19:13:45.842Z,16.53
2019-03-18T19:18:39.861Z,8.63
2019-03-18T19:23:38.016Z,11.20
2019-03-18T19:28:29.929Z,8.70
2019-03-18T19:33:24.064Z,18.83
2019-03-18T19:38:18.182Z,13.13
2019-03-18T19:43:12.223Z,11.00
2019-03-18T19:48:06.228Z,16.37
2019-03-18T19:53:00.423Z,13.07
2019-03-18T19:57:54.466Z,15.33
2019-03-18T20:02:48.609Z,10.40
2019-03-18T20:07:42.830Z,16.00
2019-03-18T20:12:36.927Z,14.73
2019-03-18T20:17:31.036Z,10.30
2019-03-18T20:22:25.114Z,7.53
2019-03-18T20:27:19.073Z,16.83
2019-03-18T20:32:13.192Z,11.53
2019-03-18T20:37:07.182Z,11.93
2019-03-18T20:42:01.219Z,10.47
2019-03-18T20:46:55.270Z,7.50
2019-03-18T20:51:49.363Z,12.23
2019-03-18T20:56:43.374Z,12.77
2019-03-18T21:01:37.345Z,12.80
2019-03-18T21:06:31.582Z,9.87
2019-03-18T21:11:25.535Z,17.43
2019-03-18T21:16:19.635Z,12.40
2019-03-18T21:21:13.755Z,10.53
2019-03-18T21:26:08.136Z,13.93
2019-03-18T21:31:02.173Z,10.60
2019-03-18T21:35:56.290Z,14.97
2019-03-18T21:40:50.454Z,11.07
2019-03-18T21:45:44.484Z,11.70
2019-03-18T21:50:38.489Z,16.67
2019-03-18T21:55:32.500Z,20.27
2019-03-18T22:00:26.555Z,17.93
2019-03-18T22:05:20.541Z,17.17
2019-03-18T22:10:18.769Z,18.13
2019-03-18T22:15:13.556Z,14.63
2019-03-18T22:20:17.628Z,21.80
2019-03-18T22:25:12.406Z,26.93
2019-03-18T22:30:09.040Z,24.40
2019-03-18T22:35:05.395Z,16.67
2019-03-18T22:39:59.398Z,25.10
2019-03-18T22:44:53.340Z,22.03
2019-03-18T22:49:47.328Z,24.97
2019-03-18T22:54:41.303Z,25.43
2019-03-18T22:59:35.302Z,22.33
2019-03-18T23:04:29.272Z,30.13
2019-03-18T23:09:23.238Z,20.13
2019-03-18T23:14:17.242Z,19.73
2019-03-18T23:19:11.297Z,26.10
2019-03-18T23:24:05.287Z,23.13
2019-03-18T23:28:59.342Z,30.70
2019-03-18T23:33:53.332Z,22.97
2019-03-18T23:38:47.307Z,21.57
2019-03-18T23:43:41.367Z,24.20
2019-03-18T23:48:35.330Z,22.93
2019-03-18T23:53:29.286Z,22.77
2019-03-18T23:58:23.244Z,23.50
